createdAt,value
2018-05-31T00:01:17.529Z,6.30
2018-05-31T00:03:44.997Z,7.03
2018-05-31T00:06:12.461Z,8.93
2018-05-31T00:08:39.989Z,7.10
2018-05-31T00:11:07.485Z,6.47
2018-05-31T00:13:35.122Z,6.23
2018-05-31T00:16:02.585Z,6.23
2018-05-31T00:18:30.126Z,7.20
2018-05-31T00:20:58.397Z,6.47
2018-05-31T00:23:25.957Z,7.07
2018-05-31T00:25:53.726Z,10.30
2018-05-31T00:28:22.704Z,7.33
2018-05-31T00:30:50.494Z,7.47
2018-05-31T00:33:18.177Z,7.47
2018-05-31T00:35:45.637Z,6.50
2018-05-31T00:38:13.097Z,6.63
2018-05-31T00:40:40.582Z,7.40
2018-05-31T00:43:08.042Z,6.80
2018-05-31T00:45:35.509Z,6.33
2018-05-31T00:48:03.295Z,7.00
2018-05-31T00:50:31.059Z,6.70
2018-05-31T00:52:58.822Z,6.63
2018-05-31T00:55:37.945Z,6.33
2018-05-31T00:58:05.718Z,7.00
2018-05-31T01:00:34.709Z,7.60
2018-05-31T01:03:03.705Z,8.20
2018-05-31T01:05:31.186Z,6.90
2018-05-31T01:07:58.646Z,7.80
2018-05-31T01:10:26.374Z,7.87
2018-05-31T01:12:54.137Z,6.70
2018-05-31T01:15:21.901Z,6.70
2018-05-31T01:17:49.538Z,6.50
2018-05-31T01:20:17.128Z,6.23
2018-05-31T01:22:44.589Z,6.57
2018-05-31T01:25:13.907Z,6.00
2018-05-31T01:27:41.522Z,6.60
2018-05-31T01:30:09.102Z,6.63
2018-05-31T01:32:37.490Z,5.77
2018-05-31T01:35:05.813Z,6.30
2018-05-31T01:37:33.272Z,6.00
2018-05-31T01:40:00.758Z,6.23
2018-05-31T01:42:28.222Z,6.10
2018-05-31T01:44:56.255Z,6.83
2018-05-31T01:47:23.758Z,6.50
2018-05-31T01:49:51.521Z,7.47
2018-05-31T01:52:18.985Z,6.70
2018-05-31T01:54:46.741Z,6.37
2018-05-31T01:57:14.509Z,6.83
2018-05-31T01:59:42.271Z,6.60
2018-05-31T02:02:10.034Z,6.50
2018-05-31T02:04:37.498Z,7.13
2018-05-31T02:07:05.141Z,6.50
2018-05-31T02:09:32.621Z,6.73
2018-05-31T02:12:00.161Z,7.77
2018-05-31T02:14:27.933Z,7.87
2018-05-31T02:16:55.695Z,6.50
2018-05-31T02:19:23.462Z,6.30
2018-05-31T02:21:51.042Z,6.50
2018-05-31T02:24:19.481Z,6.47
2018-05-31T02:26:47.062Z,6.90
2018-05-31T02:29:14.707Z,6.10
2018-05-31T02:31:42.202Z,6.03
2018-05-31T02:34:09.737Z,6.80
2018-05-31T02:36:37.197Z,6.60
2018-05-31T02:39:04.962Z,7.00
2018-05-31T02:41:32.602Z,6.67
2018-05-31T02:44:00.074Z,6.77
2018-05-31T02:46:27.633Z,6.70
2018-05-31T02:48:55.281Z,6.57
2018-05-31T02:51:22.858Z,6.37
2018-05-31T02:53:50.617Z,6.77
2018-05-31T02:56:18.077Z,6.57
2018-05-31T02:58:45.762Z,6.93
2018-05-31T03:01:13.301Z,6.57
2018-05-31T03:03:40.981Z,6.93
2018-05-31T03:06:08.433Z,6.97
2018-05-31T03:08:35.973Z,6.50
2018-05-31T03:11:03.440Z,7.50
2018-05-31T03:13:31.194Z,7.30
2018-05-31T03:15:58.653Z,7.00
2018-05-31T03:18:26.289Z,7.47
2018-05-31T03:20:53.793Z,7.43
2018-05-31T03:23:21.334Z,6.67
2018-05-31T03:25:50.321Z,6.93
2018-05-31T03:28:18.085Z,7.17
2018-05-31T03:30:45.558Z,7.13
2018-05-31T03:33:13.921Z,6.87
2018-05-31T03:35:41.389Z,7.00
2018-05-31T03:38:09.634Z,7.53
2018-05-31T03:40:37.121Z,8.20
2018-05-31T03:43:05.497Z,7.77
2018-05-31T03:45:33.986Z,8.57
2018-05-31T03:48:02.245Z,7.50
2018-05-31T03:50:29.714Z,7.50
2018-05-31T03:52:57.173Z,7.63
2018-05-31T03:55:24.642Z,7.60
2018-05-31T03:57:52.176Z,7.97
2018-05-31T04:00:19.861Z,7.80
2018-05-31T04:02:47.401Z,7.70
2018-05-31T04:05:15.053Z,7.27
2018-05-31T04:07:43.410Z,7.03
2018-05-31T04:10:11.001Z,7.33
2018-05-31T04:12:38.756Z,6.87
2018-05-31T04:15:06.401Z,7.90
2018-05-31T04:17:33.897Z,7.27
2018-05-31T04:20:01.438Z,8.07
2018-05-31T04:22:29.208Z,7.70
2018-05-31T04:24:57.535Z,8.07
2018-05-31T04:27:25.041Z,7.97
2018-05-31T04:29:52.682Z,7.93
2018-05-31T04:32:20.182Z,7.70
2018-05-31T04:34:47.641Z,8.13
2018-05-31T04:37:15.174Z,7.87
2018-05-31T04:39:42.849Z,8.27
2018-05-31T04:42:10.322Z,8.87
2018-05-31T04:44:37.850Z,8.17
2018-05-31T04:47:05.318Z,7.57
2018-05-31T04:49:32.978Z,7.93
2018-05-31T04:52:00.533Z,8.00
2018-05-31T04:54:28.302Z,7.77
2018-05-31T04:56:56.551Z,7.87
2018-05-31T04:59:24.128Z,8.00
2018-05-31T05:01:51.588Z,8.47
2018-05-31T05:04:19.074Z,8.50
2018-05-31T05:06:46.713Z,8.50
2018-05-31T05:09:14.273Z,8.90
2018-05-31T05:11:41.738Z,8.40
2018-05-31T05:14:09.365Z,8.20
2018-05-31T05:16:36.948Z,8.80
2018-05-31T05:19:06.122Z,8.53
2018-05-31T05:21:33.711Z,8.40
2018-05-31T05:24:01.211Z,8.97
2018-05-31T05:26:28.943Z,9.53
2018-05-31T05:28:56.562Z,8.90
2018-05-31T05:31:24.023Z,8.67
2018-05-31T05:33:51.513Z,8.67
2018-05-31T05:36:19.049Z,9.57
2018-05-31T05:38:46.526Z,8.90
2018-05-31T05:41:14.178Z,9.23
2018-05-31T05:43:41.726Z,8.17
2018-05-31T05:46:09.489Z,8.20
2018-05-31T05:48:37.145Z,8.70
2018-05-31T05:51:04.609Z,8.60
2018-05-31T05:53:32.065Z,9.10
2018-05-31T05:55:59.622Z,9.20
2018-05-31T05:58:27.085Z,9.23
2018-05-31T06:00:54.729Z,9.40
2018-05-31T06:03:22.213Z,9.10
2018-05-31T06:05:49.757Z,9.10
2018-05-31T06:08:18.149Z,8.67
2018-05-31T06:10:45.782Z,9.23
2018-05-31T06:13:13.357Z,9.07
2018-05-31T06:15:41.192Z,9.30
2018-05-31T06:18:08.660Z,9.37
2018-05-31T06:20:36.949Z,9.60
2018-05-31T06:23:04.418Z,8.73
2018-05-31T06:25:31.898Z,10.03
2018-05-31T06:27:59.361Z,9.50
2018-05-31T06:30:26.846Z,16.37
2018-05-31T06:32:54.318Z,9.83
2018-05-31T06:35:22.006Z,10.40
2018-05-31T06:37:49.645Z,9.77
2018-05-31T06:40:17.149Z,10.53
2018-05-31T06:42:44.615Z,9.57
2018-05-31T06:45:12.143Z,8.47
2018-05-31T06:47:39.786Z,8.80
2018-05-31T06:50:07.258Z,10.37
2018-05-31T06:52:34.731Z,9.87
2018-05-31T06:55:02.204Z,9.90
2018-05-31T06:57:29.733Z,9.80
2018-05-31T06:59:57.497Z,10.40
2018-05-31T07:02:26.825Z,10.60
2018-05-31T07:04:54.433Z,11.30
2018-05-31T07:07:21.938Z,9.70
2018-05-31T07:09:49.473Z,10.57
2018-05-31T07:12:16.949Z,10.20
2018-05-31T07:14:44.419Z,13.83
2018-05-31T07:17:12.164Z,10.30
2018-05-31T07:19:39.922Z,10.50
2018-05-31T07:22:08.213Z,9.40
2018-05-31T07:24:35.673Z,9.90
2018-05-31T07:27:03.142Z,10.20
2018-05-31T07:29:30.602Z,9.80
2018-05-31T07:31:58.071Z,8.97
2018-05-31T07:34:25.521Z,13.63
2018-05-31T07:36:53.011Z,10.73
2018-05-31T07:39:20.479Z,10.63
2018-05-31T07:41:47.958Z,10.20
2018-05-31T07:44:15.747Z,9.20
2018-05-31T07:46:43.173Z,10.73
2018-05-31T07:49:10.649Z,10.03
2018-05-31T07:51:38.110Z,9.97
2018-05-31T07:54:05.574Z,8.60
2018-05-31T07:56:33.080Z,10.23
2018-05-31T07:59:00.550Z,10.20
2018-05-31T08:01:28.018Z,10.10
2018-05-31T08:03:55.481Z,10.83
2018-05-31T08:06:22.950Z,11.97
2018-05-31T08:08:51.186Z,10.07
2018-05-31T08:11:18.714Z,9.53
2018-05-31T08:13:46.143Z,10.03
2018-05-31T08:16:13.609Z,10.30
2018-05-31T08:18:41.075Z,9.53
2018-05-31T08:21:08.677Z,10.40
2018-05-31T08:23:36.159Z,10.63
2018-05-31T08:26:03.706Z,10.60
2018-05-31T08:28:31.361Z,12.97
2018-05-31T08:30:58.829Z,11.87
2018-05-31T08:33:26.293Z,11.30
2018-05-31T08:35:54.761Z,10.90
2018-05-31T08:38:22.410Z,10.57
2018-05-31T08:40:49.993Z,11.03
2018-05-31T08:43:17.753Z,10.37
2018-05-31T08:45:45.229Z,12.90
2018-05-31T08:48:12.974Z,11.70
2018-05-31T08:50:41.953Z,11.03
2018-05-31T08:53:09.434Z,10.27
2018-05-31T08:55:37.197Z,10.40
2018-05-31T08:58:04.820Z,10.07
2018-05-31T09:00:32.318Z,9.67
2018-05-31T09:02:59.778Z,9.93
2018-05-31T09:05:27.318Z,9.10
2018-05-31T09:07:56.285Z,10.50
2018-05-31T09:10:23.769Z,9.13
2018-05-31T09:12:51.227Z,10.10
2018-05-31T09:15:18.709Z,10.10
2018-05-31T09:17:46.169Z,9.20
2018-05-31T09:20:13.906Z,8.73
2018-05-31T09:22:42.919Z,9.03
2018-05-31T09:25:10.561Z,9.23
2018-05-31T09:27:38.031Z,9.97
2018-05-31T09:30:05.493Z,10.10
2018-05-31T09:32:33.769Z,9.60
2018-05-31T09:35:02.074Z,8.67
2018-05-31T09:37:29.499Z,10.20
2018-05-31T09:39:57.246Z,9.60
2018-05-31T09:42:25.628Z,9.63
2018-05-31T09:44:53.103Z,10.23
2018-05-31T09:47:20.575Z,10.00
2018-05-31T09:49:48.033Z,9.90
2018-05-31T09:52:15.501Z,8.87
2018-05-31T09:54:42.958Z,9.33
2018-05-31T09:57:10.423Z,9.20
2018-05-31T09:59:37.889Z,7.90
2018-05-31T10:02:05.361Z,8.00
2018-05-31T10:04:32.821Z,7.70
2018-05-31T10:07:00.278Z,7.77
2018-05-31T10:09:27.747Z,8.63
2018-05-31T10:11:55.204Z,8.20
2018-05-31T10:14:22.678Z,9.10
2018-05-31T10:16:50.326Z,9.20
2018-05-31T10:19:17.793Z,7.60
2018-05-31T10:21:45.249Z,8.00
2018-05-31T10:24:12.725Z,9.47
2018-05-31T10:26:40.185Z,10.17
2018-05-31T10:29:07.660Z,8.60
2018-05-31T10:31:35.114Z,8.77
2018-05-31T10:34:02.614Z,9.47
2018-05-31T10:36:30.069Z,8.93
2018-05-31T10:38:57.545Z,8.70
2018-05-31T10:41:25.006Z,9.37
2018-05-31T10:43:52.461Z,9.23
2018-05-31T10:46:19.975Z,9.00
2018-05-31T10:48:48.157Z,9.40
2018-05-31T10:51:15.621Z,27.93
2018-05-31T10:53:43.096Z,9.50
2018-05-31T10:56:11.168Z,9.20
2018-05-31T10:58:40.485Z,8.47
2018-05-31T11:01:08.116Z,7.60
2018-05-31T11:03:35.701Z,7.43
2018-05-31T11:06:03.161Z,7.27
2018-05-31T11:08:30.913Z,7.03
2018-05-31T11:10:59.884Z,6.83
2018-05-31T11:13:27.533Z,6.57
2018-05-31T11:15:55.126Z,6.67
2018-05-31T11:18:24.289Z,7.53
2018-05-31T11:20:51.764Z,6.60
2018-05-31T11:23:19.333Z,7.80
2018-05-31T11:25:47.097Z,6.40
2018-05-31T11:28:16.058Z,7.07
2018-05-31T11:30:43.549Z,6.40
2018-05-31T11:33:12.526Z,6.00
2018-05-31T11:35:39.993Z,6.77
2018-05-31T11:38:08.972Z,6.50
2018-05-31T11:40:36.463Z,6.50
2018-05-31T11:43:04.853Z,6.73
2018-05-31T11:45:32.459Z,6.40
2018-05-31T11:47:59.925Z,5.87
2018-05-31T11:50:27.501Z,10.20
2018-05-31T11:52:55.269Z,6.33
2018-05-31T11:55:24.225Z,6.67
2018-05-31T11:57:51.689Z,6.50
2018-05-31T12:00:19.261Z,6.20
2018-05-31T12:02:46.937Z,6.53
2018-05-31T12:05:15.934Z,5.50
2018-05-31T12:07:43.701Z,5.80
2018-05-31T12:10:11.460Z,5.93
2018-05-31T12:12:40.425Z,5.47
2018-05-31T12:15:08.226Z,5.70
2018-05-31T12:17:35.997Z,6.10
2018-05-31T12:20:03.569Z,5.70
2018-05-31T12:22:31.815Z,6.10
2018-05-31T12:25:00.786Z,5.83
2018-05-31T12:27:28.278Z,5.20
2018-05-31T12:29:55.733Z,5.13
2018-05-31T12:32:23.200Z,6.60
2018-05-31T12:34:50.663Z,6.13
2018-05-31T12:37:18.123Z,7.27
2018-05-31T12:39:45.854Z,7.23
2018-05-31T12:42:13.317Z,7.13
2018-05-31T12:44:40.783Z,7.03
2018-05-31T12:47:08.228Z,7.07
2018-05-31T12:49:35.701Z,6.80
2018-05-31T12:52:03.153Z,6.90
2018-05-31T12:54:30.617Z,7.23
2018-05-31T12:56:58.079Z,6.80
2018-05-31T12:59:25.554Z,6.40
2018-05-31T13:01:53.019Z,6.10
2018-05-31T13:04:20.471Z,5.87
2018-05-31T13:06:48.478Z,6.63
2018-05-31T13:09:15.929Z,6.23
2018-05-31T13:11:43.389Z,6.27
2018-05-31T13:14:10.847Z,5.93
2018-05-31T13:16:38.309Z,6.80
2018-05-31T13:19:05.782Z,5.50
2018-05-31T13:21:33.241Z,5.43
2018-05-31T13:24:00.719Z,4.83
2018-05-31T13:26:28.185Z,6.00
2018-05-31T13:28:55.640Z,5.73
2018-05-31T13:31:23.114Z,5.90
2018-05-31T13:33:50.576Z,6.40
2018-05-31T13:36:18.049Z,6.27
2018-05-31T13:38:45.526Z,5.73
2018-05-31T13:41:12.994Z,6.00
2018-05-31T13:43:40.557Z,5.80
2018-05-31T13:46:08.113Z,6.63
2018-05-31T13:48:36.255Z,7.20
2018-05-31T13:51:03.681Z,7.57
2018-05-31T13:53:31.152Z,7.90
2018-05-31T13:55:58.811Z,5.73
2018-05-31T13:58:26.278Z,6.60
2018-05-31T14:00:53.741Z,6.73
2018-05-31T14:03:21.226Z,7.00
2018-05-31T14:05:48.682Z,6.30
2018-05-31T14:08:16.146Z,6.83
2018-05-31T14:10:44.506Z,7.07
2018-05-31T14:13:11.974Z,6.43
2018-05-31T14:15:39.429Z,6.07
2018-05-31T14:18:06.894Z,5.43
2018-05-31T14:20:34.346Z,6.60
2018-05-31T14:23:01.826Z,6.40
2018-05-31T14:25:29.287Z,6.57
2018-05-31T14:27:56.760Z,6.20
2018-05-31T14:30:24.223Z,6.53
2018-05-31T14:32:51.696Z,5.80
2018-05-31T14:35:19.150Z,6.53
2018-05-31T14:37:46.621Z,6.00
2018-05-31T14:40:14.078Z,6.00
2018-05-31T14:42:41.541Z,5.93
2018-05-31T14:45:09.010Z,5.67
2018-05-31T14:47:36.476Z,6.00
2018-05-31T14:50:03.945Z,5.93
2018-05-31T14:52:31.405Z,5.60
2018-05-31T14:54:58.899Z,5.47
2018-05-31T14:57:26.361Z,5.63
2018-05-31T14:59:53.826Z,5.30
2018-05-31T15:02:21.285Z,6.20
2018-05-31T15:04:48.753Z,5.00
2018-05-31T15:07:16.210Z,5.40
2018-05-31T15:09:43.673Z,5.40
2018-05-31T15:12:11.125Z,5.30
2018-05-31T15:14:38.605Z,5.40
2018-05-31T15:17:06.061Z,5.33
2018-05-31T15:19:33.525Z,5.07
2018-05-31T15:22:00.986Z,4.93
2018-05-31T15:24:28.441Z,4.93
2018-05-31T15:26:55.898Z,5.43
2018-05-31T15:29:23.357Z,5.47
2018-05-31T15:31:50.828Z,5.60
2018-05-31T15:34:18.290Z,5.40
2018-05-31T15:36:45.742Z,5.17
2018-05-31T15:39:13.282Z,6.17
2018-05-31T15:41:40.752Z,7.00
2018-05-31T15:44:08.377Z,6.70
2018-05-31T15:46:35.858Z,6.90
2018-05-31T15:49:03.329Z,8.57
2018-05-31T15:51:30.794Z,9.57
2018-05-31T15:53:58.349Z,8.47
2018-05-31T15:56:26.023Z,7.60
2018-05-31T15:58:53.474Z,8.80
2018-05-31T16:01:20.924Z,9.53
2018-05-31T16:03:48.398Z,9.00
2018-05-31T16:06:15.870Z,7.73
2018-05-31T16:08:43.374Z,7.30
2018-05-31T16:11:10.818Z,7.17
2018-05-31T16:13:38.602Z,7.57
2018-05-31T16:16:06.361Z,7.67
2018-05-31T16:18:35.673Z,7.63
2018-05-31T16:21:03.446Z,7.10
2018-05-31T16:23:30.901Z,7.50
2018-05-31T16:25:58.558Z,7.40
2018-05-31T16:28:26.081Z,6.90
2018-05-31T16:30:53.914Z,6.93
2018-05-31T16:33:21.545Z,7.73
2018-05-31T16:35:49.001Z,7.90
2018-05-31T16:38:16.469Z,7.20
2018-05-31T16:40:44.010Z,7.03
2018-05-31T16:43:11.458Z,8.07
2018-05-31T16:45:40.644Z,7.50
2018-05-31T16:48:08.106Z,7.57
2018-05-31T16:50:35.589Z,7.67
2018-05-31T16:53:03.058Z,7.90
2018-05-31T16:55:30.526Z,8.13
2018-05-31T16:57:57.988Z,7.87
2018-05-31T17:00:25.457Z,7.83
2018-05-31T17:02:52.930Z,8.30
2018-05-31T17:05:20.401Z,9.43
2018-05-31T17:07:48.076Z,8.57
2018-05-31T17:10:16.457Z,7.90
2018-05-31T17:12:43.913Z,9.93
2018-05-31T17:15:12.157Z,8.60
2018-05-31T17:17:39.770Z,8.90
2018-05-31T17:20:07.238Z,7.90
2018-05-31T17:22:34.697Z,8.80
2018-05-31T17:25:02.154Z,8.03
2018-05-31T17:27:29.616Z,8.20
2018-05-31T17:29:57.470Z,7.87
2018-05-31T17:32:25.118Z,8.10
2018-05-31T17:34:52.573Z,8.10
2018-05-31T17:37:20.115Z,8.43
2018-05-31T17:39:49.082Z,8.43
2018-05-31T17:42:16.874Z,7.97
2018-05-31T17:44:45.837Z,8.20
2018-05-31T17:47:13.529Z,8.47
2018-05-31T17:49:41.010Z,8.70
2018-05-31T17:52:08.469Z,9.30
2018-05-31T17:54:36.005Z,8.90
2018-05-31T17:57:05.187Z,8.70
2018-05-31T17:59:32.648Z,8.63
2018-05-31T18:02:00.141Z,8.43
2018-05-31T18:04:27.601Z,7.90
2018-05-31T18:06:55.066Z,8.77
2018-05-31T18:09:22.539Z,8.67
2018-05-31T18:11:49.996Z,8.67
2018-05-31T18:14:17.476Z,8.17
2018-05-31T18:16:44.929Z,8.17
2018-05-31T18:19:12.401Z,7.97
2018-05-31T18:21:39.857Z,9.03
2018-05-31T18:24:07.333Z,7.90
2018-05-31T18:26:34.793Z,8.00
2018-05-31T18:29:02.297Z,8.00
2018-05-31T18:31:29.746Z,8.03
2018-05-31T18:33:57.211Z,7.80
2018-05-31T18:36:24.669Z,8.10
2018-05-31T18:38:52.130Z,7.70
2018-05-31T18:41:19.597Z,7.77
2018-05-31T18:43:47.069Z,7.50
2018-05-31T18:46:14.529Z,8.07
2018-05-31T18:48:41.999Z,7.90
2018-05-31T18:51:09.464Z,8.07
2018-05-31T18:53:36.929Z,8.10
2018-05-31T18:56:04.386Z,9.83
2018-05-31T18:58:31.853Z,8.60
2018-05-31T19:01:00.084Z,8.33
2018-05-31T19:03:28.665Z,7.97
2018-05-31T19:05:56.245Z,8.07
2018-05-31T19:08:23.701Z,8.20
2018-05-31T19:10:52.686Z,8.70
2018-05-31T19:13:25.881Z,8.20
2018-05-31T19:15:53.346Z,8.00
2018-05-31T19:18:26.405Z,8.90
2018-05-31T19:20:53.889Z,8.03
2018-05-31T19:23:21.533Z,8.37
2018-05-31T19:25:49.038Z,8.50
2018-05-31T19:28:16.498Z,8.03
2018-05-31T19:30:49.597Z,8.30
2018-05-31T19:33:17.069Z,8.40
2018-05-31T19:35:50.101Z,7.83
2018-05-31T19:38:17.558Z,8.40
2018-05-31T19:40:45.027Z,8.50
2018-05-31T19:43:18.193Z,8.37
2018-05-31T19:45:45.656Z,8.00
2018-05-31T19:48:14.618Z,8.43
2018-05-31T19:50:42.089Z,8.93
2018-05-31T19:53:15.130Z,8.43
2018-05-31T19:55:42.597Z,9.13
2018-05-31T19:58:25.859Z,9.17
2018-05-31T20:00:58.863Z,9.10
2018-05-31T20:03:30.765Z,9.00
2018-05-31T20:05:58.225Z,8.83
2018-05-31T20:08:25.681Z,9.20
2018-05-31T20:10:53.149Z,10.27
2018-05-31T20:13:20.627Z,9.27
2018-05-31T20:15:48.109Z,8.77
2018-05-31T20:18:15.561Z,8.30
2018-05-31T20:20:43.264Z,8.90
2018-05-31T20:23:10.789Z,9.57
2018-05-31T20:25:38.249Z,10.10
2018-05-31T20:28:05.845Z,10.00
2018-05-31T20:30:33.417Z,10.30
2018-05-31T20:33:01.021Z,10.20
2018-05-31T20:35:28.539Z,10.03
2018-05-31T20:37:56.416Z,9.50
2018-05-31T20:40:24.030Z,8.97
2018-05-31T20:42:51.582Z,9.63
2018-05-31T20:45:20.685Z,10.30
2018-05-31T20:47:48.263Z,9.57
2018-05-31T20:50:15.728Z,9.33
2018-05-31T20:52:43.198Z,9.40
2018-05-31T20:55:10.722Z,10.00
2018-05-31T20:57:38.889Z,9.83
2018-05-31T21:00:06.373Z,8.80
2018-05-31T21:02:34.625Z,9.50
2018-05-31T21:05:02.086Z,9.27
2018-05-31T21:07:29.721Z,9.40
2018-05-31T21:09:57.293Z,8.90
2018-05-31T21:12:24.801Z,9.23
2018-05-31T21:14:52.402Z,8.30
2018-05-31T21:17:19.865Z,7.47
2018-05-31T21:19:47.426Z,7.03
2018-05-31T21:22:15.074Z,6.60
2018-05-31T21:24:42.552Z,6.60
2018-05-31T21:27:10.005Z,6.63
2018-05-31T21:29:37.477Z,6.20
2018-05-31T21:32:04.934Z,6.30
2018-05-31T21:34:32.397Z,6.10
2018-05-31T21:36:59.938Z,5.50
2018-05-31T21:39:28.221Z,5.60
2018-05-31T21:41:55.766Z,5.57
2018-05-31T21:44:23.405Z,7.20
2018-05-31T21:46:50.877Z,6.17
2018-05-31T21:49:18.387Z,5.70
2018-05-31T21:51:45.854Z,5.73
2018-05-31T21:54:13.369Z,6.63
2018-05-31T21:56:42.354Z,6.60
2018-05-31T21:59:09.801Z,5.73
2018-05-31T22:01:37.271Z,5.70
2018-05-31T22:04:04.718Z,5.37
2018-05-31T22:06:32.194Z,5.30
2018-05-31T22:09:01.492Z,5.80
2018-05-31T22:11:30.497Z,5.50
2018-05-31T22:13:58.711Z,5.20
2018-05-31T22:16:26.178Z,5.53
2018-05-31T22:18:53.720Z,5.67
2018-05-31T22:21:21.198Z,5.23
2018-05-31T22:23:49.700Z,5.40
2018-05-31T22:26:17.178Z,5.60
2018-05-31T22:28:44.641Z,5.50
2018-05-31T22:31:12.887Z,5.40
2018-05-31T22:33:40.373Z,5.43
2018-05-31T22:36:08.134Z,5.37
2018-05-31T22:38:36.431Z,5.20
2018-05-31T22:41:03.889Z,5.40
2018-05-31T22:43:31.369Z,5.47
2018-05-31T22:45:58.886Z,5.67
2018-05-31T22:48:26.349Z,5.57
2018-05-31T22:50:54.090Z,5.27
2018-05-31T22:53:21.571Z,5.53
2018-05-31T22:55:49.221Z,5.77
2018-05-31T22:58:16.682Z,6.10
2018-05-31T23:00:44.183Z,5.20
2018-05-31T23:03:11.645Z,6.27
2018-05-31T23:05:39.110Z,5.90
2018-05-31T23:08:06.791Z,5.90
2018-05-31T23:10:34.266Z,5.40
2018-05-31T23:13:01.743Z,5.90
2018-05-31T23:15:29.273Z,5.43
2018-05-31T23:17:56.752Z,5.83
2018-05-31T23:20:24.494Z,6.07
2018-05-31T23:22:52.246Z,6.00
2018-05-31T23:25:19.906Z,6.00
2018-05-31T23:27:47.386Z,6.23
2018-05-31T23:30:15.077Z,6.10
2018-05-31T23:32:43.316Z,6.60
2018-05-31T23:35:12.610Z,6.17
2018-05-31T23:37:40.169Z,6.00
2018-05-31T23:40:07.657Z,6.60
2018-05-31T23:42:36.090Z,6.40
2018-05-31T23:45:03.673Z,6.63
2018-05-31T23:47:31.953Z,5.90
2018-05-31T23:49:59.510Z,5.87
2018-05-31T23:52:27.760Z,5.73
2018-05-31T23:54:55.346Z,6.00
2018-05-31T23:57:24.310Z,6.07
2018-05-31T23:59:51.790Z,6.00
